Погода METAR - Новосибирск (Толмачево)

Кемерово, Абакан, Красноярск, Новосибирск
Код METAR: UNNT 240000Z 30002MPS 9999 OVC030 02/00 Q1024 R25/290155 R34/////// NOSIG RMK QFE758/1010

Погода - Сейчас

Время: 2021-09-24 07:00, местное
Направление ветра: Северо-запад (300°)
Скорость ветра: 2 м/с
Видимость:
Температура: 2°C
Точка росы: 0°C
Атмосферное давление: 1024 гПа

Архив погоды

Время, местное Направление Скорость, м/с Температура, °C Точка росы, °C Давление, гПа
2021-09-24 07:00 СЗ (300°) 2 2 0 1024
2021-09-23 16:30 С (360°) 3 7 2 1020
2021-09-22 01:30 З (270°) 2 2 0 1017
2021-09-21 21:00 З (270°) 3 4 2 1016
2021-09-21 19:00 СЗ (300°) 6, порывы до 14 6 3 1015
2021-09-21 16:30 З (280°) 3 7 4 1014
2021-09-21 10:30 З (270°) 5 6 3 1013
2021-09-20 22:30 ЮЗ (230°) 4 5 3 1011
2021-09-20 16:00 ЗЮЗ (240°) 6 5 3 1010
2021-09-20 11:00 ЮЗ (220°) 6 6 2 1009
2021-09-20 07:30 ЗЮЗ (240°) 7 4 1 1007
2021-09-19 21:00 ЗЮЗ (250°) 5 8 5 1005
2021-09-19 19:30 З (270°) 9 10 3 1004
2021-09-19 14:30 ЮЮВ (160°) 5 12 4 1002
2021-09-18 22:00 ЗЮЗ (260°) 3 9 4 1009
2021-09-18 17:30 З (270°) 5 12 4 1008
2021-09-18 10:30 ЗЮЗ (240°) 7 10 6 1004
2021-09-17 22:00 З (270°) 4 18 8 997
2021-09-17 14:30 Ю (190°) 7, порывы до 12 24 4 999
2021-09-16 00:00 ЮЗ (220°) 4 15 8 1011
2021-09-15 23:00 ЮЗ (210°) 4 16 8 1012
2021-09-15 20:00 ЮЗ (220°) 4 19 8 1012
2021-09-13 15:30 ЗЮЗ (240°) 9 12 3 1011
2021-09-12 14:30 ЗЮЗ (240°) 7 12 2 1002
2021-09-12 14:00 ЗЮЗ (240°) 7 12 3 1001
2021-09-10 12:30 Ю (180°) 4 14 5 1010
2021-09-07 20:30 ССВ (20°) 2 16 9 1015
2021-09-07 17:30 СВ (30°) 3 22 8 1016
2021-09-07 06:30 ССЗ (330°) 3 10 9 1019
2021-09-06 17:00 СЗ (300°) 7 25 13 1014
2021-09-06 12:30 З (270°) 5 25 11 1013
2021-09-06 07:00 ВЮВ (110°) 1 9 9 1012
2021-09-04 06:30 СЗ (310°) 1 0 500
2021-09-02 21:00 СВ (30°) 2 11 6 1023
2021-09-02 11:30 В (90°) 3 16 8 1023
2021-09-01 04:00 ЮЗ (230°) 2 9 6 1012
2021-08-31 11:00 Ю (180°) 2 14 8 1014
2021-08-31 08:30 ЮЗ (230°) 2 8 7 1014
2021-08-29 03:30 ССВ (20°) 2 18 17 1007
2021-08-26 22:00 ВСВ (60°) 5 23 15 1014
2021-08-26 21:00 СВ (30°) 3 23 16 1014
2021-08-26 07:30 ССЗ (340°) 2 13 13 1017
2021-08-25 22:00 СВ (30°) 3 19 14 1018
2021-08-25 10:30 СВ (30°) 3 21 15 1020
2021-08-21 06:30 СЗ (300°) 1 4 4 1023
2021-08-20 19:30 ССЗ (340°) 6 19 9 1016
2021-08-19 10:00 С (360°) 2 18 15 1013
2021-08-19 06:00 СЗ (300°) 2 14 14 1011